Terminal Aerodrome Forecast
Issued by NWS Wakefield, VA

Home | Current Version | Previous Version | Text Only | Print | Product List | Glossary On
Versions: 1 2 3 4 5 6 7 8 9 10 11 12 13 14 15 16 17 18 19 20 21
000
FTUS41 KAKQ 230800 AAA
TAFORF
TAF AMD
KORF 230813Z 2308/2406 04015G25KT P6SM BKN200
     FM231400 04012G20KT P6SM FEW040 SCT120
     FM232100 06010KT P6SM SCT120=

USA.gov is the U.S. government's official web portal to all federal, state and local government web resources and services.